createdAt,value
2022-12-11T00:01:38.859Z,94286.97
2022-12-11T00:04:05.542Z,94304.75
2022-12-11T00:06:32.167Z,94298.22
2022-12-11T00:08:58.900Z,94297.69
2022-12-11T00:11:25.568Z,94302.00
2022-12-11T00:13:52.262Z,94301.63
2022-12-11T00:16:23.817Z,94304.41
2022-12-11T00:18:53.308Z,94303.94
2022-12-11T00:21:19.988Z,94305.22
2022-12-11T00:23:46.685Z,94303.94
2022-12-11T00:26:15.119Z,94297.56
2022-12-11T00:28:43.807Z,94299.91
2022-12-11T00:31:15.803Z,94293.69
2022-12-11T00:33:45.083Z,94290.09
2022-12-11T00:36:14.210Z,94287.25
2022-12-11T00:38:41.264Z,94285.41
2022-12-11T00:41:07.958Z,94316.88
2022-12-11T00:43:34.743Z,94305.59
2022-12-11T00:46:01.561Z,94311.59
2022-12-11T00:48:28.208Z,94307.75
2022-12-11T00:50:54.994Z,94291.72
2022-12-11T00:53:21.641Z,94293.72
2022-12-11T00:55:48.340Z,94307.78
2022-12-11T00:58:16.043Z,94293.78
2022-12-11T01:00:43.156Z,94289.19
2022-12-11T01:03:13.012Z,94305.06
2022-12-11T01:05:39.793Z,94310.38
2022-12-11T01:08:06.908Z,94316.44
2022-12-11T01:10:33.995Z,94311.25
2022-12-11T01:13:04.943Z,94300.06
2022-12-11T01:15:41.353Z,94306.09
2022-12-11T01:18:10.982Z,94294.78
2022-12-11T01:20:40.318Z,94298.53
2022-12-11T01:23:07.285Z,94305.34
2022-12-11T01:25:36.658Z,94308.09
2022-12-11T01:28:03.881Z,94314.22
2022-12-11T01:30:30.653Z,94325.16
2022-12-11T01:32:57.425Z,94326.88
2022-12-11T01:35:27.516Z,94341.69
2022-12-11T01:37:54.313Z,94333.78
2022-12-11T01:40:22.729Z,94322.44
2022-12-11T01:42:49.915Z,94332.00
2022-12-11T01:45:29.704Z,94321.19
2022-12-11T01:48:12.480Z,94330.28
2022-12-11T01:50:49.153Z,94348.59
2022-12-11T01:53:21.288Z,94340.50
2022-12-11T01:55:53.254Z,94330.81
2022-12-11T01:58:23.834Z,94324.50
2022-12-11T02:00:52.929Z,94328.41
2022-12-11T02:03:20.253Z,94326.47
2022-12-11T02:05:47.075Z,94327.53
2022-12-11T02:08:14.710Z,94332.88
2022-12-11T02:10:58.151Z,94326.31
2022-12-11T02:13:56.071Z,94326.44
2022-12-11T02:16:37.746Z,94338.28
2022-12-11T02:19:16.809Z,94337.28
2022-12-11T02:21:53.127Z,94337.13
2022-12-11T02:24:32.936Z,94332.84
2022-12-11T02:27:31.923Z,94339.84
2022-12-11T02:30:08.247Z,94345.56
2022-12-11T02:32:59.429Z,94340.97
2022-12-11T02:35:33.487Z,94346.22
2022-12-11T02:38:12.918Z,94332.09
2022-12-11T02:40:42.736Z,94332.28
2022-12-11T02:43:12.980Z,94337.31
2022-12-11T02:45:42.433Z,94337.16
2022-12-11T02:48:12.847Z,94335.69
2022-12-11T02:50:46.227Z,94353.97
2022-12-11T02:53:18.497Z,94331.50
2022-12-11T02:55:45.743Z,94344.56
2022-12-11T02:58:22.085Z,94336.59
2022-12-11T03:00:49.039Z,94335.41
2022-12-11T03:03:15.945Z,94340.63
2022-12-11T03:05:43.303Z,94343.34
2022-12-11T03:08:10.354Z,94349.22
2022-12-11T03:10:37.092Z,94354.38
2022-12-11T03:13:05.144Z,94355.06
2022-12-11T03:15:58.617Z,94348.56
2022-12-11T03:18:30.543Z,94352.41
2022-12-11T03:21:05.072Z,94350.94
2022-12-11T03:23:44.072Z,94340.53
2022-12-11T03:26:15.505Z,94340.47
2022-12-11T03:28:54.915Z,94337.53
2022-12-11T03:31:31.556Z,94350.91
2022-12-11T03:34:04.585Z,94339.22
2022-12-11T03:36:36.503Z,94338.16
2022-12-11T03:39:13.400Z,94337.56
2022-12-11T03:41:43.919Z,94336.47
2022-12-11T03:44:12.669Z,94340.81
2022-12-11T03:46:43.400Z,94350.03
2022-12-11T03:49:24.013Z,94345.66
2022-12-11T03:51:54.326Z,94341.59
2022-12-11T03:54:22.905Z,94338.69
2022-12-11T03:56:55.416Z,94339.94
2022-12-11T03:59:22.103Z,94337.28
2022-12-11T04:01:48.832Z,94344.16
2022-12-11T04:04:19.542Z,94333.25
2022-12-11T04:06:46.268Z,94339.97
2022-12-11T04:09:12.994Z,94341.06
2022-12-11T04:11:39.660Z,94345.69
2022-12-11T04:14:26.967Z,94339.91
2022-12-11T04:17:03.696Z,94334.75
2022-12-11T04:19:44.115Z,94335.69
2022-12-11T04:22:17.240Z,94333.78
2022-12-11T04:24:43.864Z,94338.84
2022-12-11T04:27:10.524Z,94334.72
2022-12-11T04:29:37.166Z,94328.16
2022-12-11T04:32:03.870Z,94337.97
2022-12-11T04:34:30.594Z,94328.34
2022-12-11T04:36:57.344Z,94317.81
2022-12-11T04:39:26.336Z,94322.28
2022-12-11T04:41:53.057Z,94322.88
2022-12-11T04:44:19.672Z,94317.88
2022-12-11T04:46:46.415Z,94326.56
2022-12-11T04:49:13.080Z,94325.28
2022-12-11T04:51:39.686Z,94322.56
2022-12-11T04:54:06.374Z,94314.06
2022-12-11T04:56:33.043Z,94325.50
2022-12-11T04:58:59.640Z,94317.03
2022-12-11T05:01:26.315Z,94311.09
2022-12-11T05:03:53.033Z,94301.13
2022-12-11T05:06:19.634Z,94307.34
2022-12-11T05:08:46.278Z,94303.56
2022-12-11T05:11:15.327Z,94313.25
2022-12-11T05:13:43.326Z,94308.81
2022-12-11T05:16:13.908Z,94312.28
2022-12-11T05:18:40.594Z,94300.13
2022-12-11T05:21:11.475Z,94307.16
2022-12-11T05:23:39.258Z,94313.25
2022-12-11T05:26:08.980Z,94299.88
2022-12-11T05:28:37.447Z,94299.44
2022-12-11T05:31:12.400Z,94303.31
2022-12-11T05:33:39.612Z,94306.47
2022-12-11T05:36:07.744Z,94314.69
2022-12-11T05:38:34.746Z,94308.03
2022-12-11T05:41:06.364Z,94312.66
2022-12-11T05:43:35.968Z,94303.13
2022-12-11T05:46:12.146Z,94317.25
2022-12-11T05:48:39.775Z,94306.28
2022-12-11T05:51:08.528Z,94308.09
2022-12-11T05:53:39.303Z,94293.16
2022-12-11T05:56:10.869Z,94302.34
2022-12-11T05:58:39.379Z,94300.75
2022-12-11T06:01:18.780Z,94296.22
2022-12-11T06:03:45.778Z,94298.88
2022-12-11T06:06:12.412Z,94300.03
2022-12-11T06:08:39.433Z,94294.22
2022-12-11T06:11:06.258Z,94286.00
2022-12-11T06:13:33.800Z,94281.78
2022-12-11T06:16:02.421Z,94282.28
2022-12-11T06:18:29.396Z,94279.69
2022-12-11T06:20:56.048Z,94290.03
2022-12-11T06:23:23.107Z,94268.19
2022-12-11T06:25:49.817Z,94276.31
2022-12-11T06:28:16.556Z,94285.66
2022-12-11T06:30:43.415Z,94289.19
2022-12-11T06:33:10.163Z,94291.31
2022-12-11T06:35:42.138Z,94291.81
2022-12-11T06:38:09.985Z,94303.75
2022-12-11T06:40:36.735Z,94296.31
2022-12-11T06:43:03.566Z,94308.28
2022-12-11T06:45:30.280Z,94298.75
2022-12-11T06:47:56.970Z,94301.16
2022-12-11T06:50:23.618Z,94297.59
2022-12-11T06:52:50.383Z,94309.91
2022-12-11T06:55:17.245Z,94297.47
2022-12-11T06:57:43.876Z,94307.78
2022-12-11T07:00:11.262Z,94303.41
2022-12-11T07:02:37.919Z,94298.25
2022-12-11T07:05:05.201Z,94316.63
2022-12-11T07:07:31.841Z,94299.38
2022-12-11T07:10:02.720Z,94306.31
2022-12-11T07:12:34.216Z,94315.63
2022-12-11T07:15:00.843Z,94314.47
2022-12-11T07:17:29.483Z,94306.28
2022-12-11T07:19:56.436Z,94317.53
2022-12-11T07:22:23.283Z,94322.38
2022-12-11T07:24:50.032Z,94323.69
2022-12-11T07:27:16.705Z,94324.34
2022-12-11T07:29:43.467Z,94326.09
2022-12-11T07:32:10.232Z,94323.66
2022-12-11T07:34:37.344Z,94316.09
2022-12-11T07:37:05.277Z,94334.00
2022-12-11T07:39:31.974Z,94334.00
2022-12-11T07:41:58.684Z,94344.13
2022-12-11T07:44:25.384Z,94331.94
2022-12-11T07:46:52.052Z,94325.19
2022-12-11T07:49:18.782Z,94318.22
2022-12-11T07:51:46.789Z,94325.00
2022-12-11T07:54:15.751Z,94325.00
2022-12-11T07:56:52.792Z,94320.19
2022-12-11T07:59:20.324Z,94311.13
2022-12-11T08:01:47.077Z,94312.56
2022-12-11T08:04:13.791Z,94316.13
2022-12-11T08:06:42.562Z,94314.63
2022-12-11T08:09:18.930Z,94328.38
2022-12-11T08:11:51.949Z,94303.84
2022-12-11T08:14:19.514Z,94316.63
2022-12-11T08:16:47.116Z,94322.09
2022-12-11T08:19:14.635Z,94308.56
2022-12-11T08:21:41.440Z,94311.16
2022-12-11T08:24:08.568Z,94312.06
2022-12-11T08:26:35.551Z,94304.00
2022-12-11T08:29:02.761Z,94310.00
2022-12-11T08:31:29.983Z,94312.13
2022-12-11T08:33:57.695Z,94309.22
2022-12-11T08:36:25.450Z,94317.91
2022-12-11T08:38:53.792Z,94297.25
2022-12-11T08:41:24.460Z,94306.28
2022-12-11T08:43:51.723Z,94307.22
2022-12-11T08:46:18.633Z,94304.81
2022-12-11T08:48:45.419Z,94301.28
2022-12-11T08:51:16.862Z,94315.97
2022-12-11T08:53:44.518Z,94296.31
2022-12-11T08:56:14.787Z,94289.53
2022-12-11T08:58:42.098Z,94306.97
2022-12-11T09:01:11.809Z,94283.22
2022-12-11T09:03:39.791Z,94285.00
2022-12-11T09:06:12.282Z,94280.16
2022-12-11T09:08:39.985Z,94281.47
2022-12-11T09:11:10.093Z,94277.72
2022-12-11T09:13:37.367Z,94271.75
2022-12-11T09:16:06.953Z,94275.63
2022-12-11T09:18:33.698Z,94291.47
2022-12-11T09:21:09.743Z,94284.34
2022-12-11T09:23:36.569Z,94274.34
2022-12-11T09:26:08.490Z,94269.16
2022-12-11T09:28:35.271Z,94278.84
2022-12-11T09:31:01.966Z,94277.69
2022-12-11T09:33:28.664Z,94270.75
2022-12-11T09:36:02.800Z,94270.38
2022-12-11T09:38:30.471Z,94266.94
2022-12-11T09:40:57.459Z,94269.19
2022-12-11T09:43:45.626Z,94252.31
2022-12-11T09:46:14.586Z,94264.56
2022-12-11T09:48:46.231Z,94262.31
2022-12-11T09:51:41.852Z,94264.81
2022-12-11T09:54:14.092Z,94270.69
2022-12-11T09:57:07.891Z,94275.53
2022-12-11T10:00:20.997Z,94275.97
2022-12-11T10:03:37.067Z,94267.53
2022-12-11T10:06:24.307Z,94268.75
2022-12-11T10:09:08.797Z,94269.97
2022-12-11T10:11:35.335Z,94285.19
2022-12-11T10:14:39.635Z,94272.84
2022-12-11T10:17:25.488Z,94281.16
2022-12-11T10:19:53.371Z,94274.22
2022-12-11T10:22:29.924Z,94256.25
2022-12-11T10:25:15.531Z,94270.28
2022-12-11T10:27:42.408Z,94258.34
2022-12-11T10:30:14.982Z,94254.34
2022-12-11T10:32:51.872Z,94252.84
2022-12-11T10:35:36.587Z,94246.94
2022-12-11T10:38:21.806Z,94267.28
2022-12-11T10:40:58.435Z,94264.84
2022-12-11T10:43:41.760Z,94256.41
2022-12-11T10:46:18.027Z,94251.94
2022-12-11T10:48:58.434Z,94258.91
2022-12-11T10:51:31.122Z,94257.81
2022-12-11T10:54:07.512Z,94245.91
2022-12-11T10:56:37.896Z,94250.25
2022-12-11T10:59:05.255Z,94251.19
2022-12-11T11:01:33.009Z,94248.09
2022-12-11T11:04:02.433Z,94251.53
2022-12-11T11:06:29.296Z,94255.03
2022-12-11T11:08:58.867Z,94249.84
2022-12-11T11:11:25.429Z,94245.69
2022-12-11T11:14:03.763Z,94249.84
2022-12-11T11:16:31.181Z,94250.38
2022-12-11T11:18:58.081Z,94242.47
2022-12-11T11:21:27.111Z,94251.09
2022-12-11T11:23:54.479Z,94250.06
2022-12-11T11:26:22.746Z,94243.66
2022-12-11T11:28:56.551Z,94242.22
2022-12-11T11:31:34.213Z,94238.34
2022-12-11T11:34:06.467Z,94236.66
2022-12-11T11:36:35.627Z,94241.56
2022-12-11T11:39:17.403Z,94245.28
2022-12-11T11:42:01.659Z,94235.25
2022-12-11T11:44:36.848Z,94234.47
2022-12-11T11:47:15.909Z,94237.84
2022-12-11T11:50:16.991Z,94240.94
2022-12-11T11:52:58.790Z,94232.69
2022-12-11T11:55:54.984Z,94229.19
2022-12-11T11:58:31.363Z,94234.50
2022-12-11T12:00:58.121Z,94237.81
2022-12-11T12:03:25.918Z,94229.16
2022-12-11T12:06:22.164Z,94224.19
2022-12-11T12:09:26.441Z,94226.03
2022-12-11T12:12:14.264Z,94216.75
2022-12-11T12:14:55.322Z,94212.22
2022-12-11T12:17:40.234Z,94207.13
2022-12-11T12:20:31.251Z,94207.31
2022-12-11T12:23:16.491Z,94201.72
2022-12-11T12:26:05.791Z,94207.59
2022-12-11T12:28:45.463Z,94201.09
2022-12-11T12:31:20.995Z,94205.81
2022-12-11T12:34:28.159Z,94211.00
2022-12-11T12:36:54.700Z,94212.16
2022-12-11T12:39:54.219Z,94201.50
2022-12-11T12:42:47.147Z,94212.41
2022-12-11T12:45:14.235Z,94209.16
2022-12-11T12:47:51.992Z,94209.97
2022-12-11T12:50:26.314Z,94207.94
2022-12-11T12:52:55.263Z,94200.94
2022-12-11T12:55:26.361Z,94208.47
2022-12-11T12:58:05.531Z,94201.97
2022-12-11T13:00:43.491Z,94204.19
2022-12-11T13:03:18.667Z,94190.50
2022-12-11T13:05:55.453Z,94200.34
2022-12-11T13:08:34.794Z,94201.13
2022-12-11T13:11:10.932Z,94199.28
2022-12-11T13:13:39.275Z,94198.09
2022-12-11T13:16:27.283Z,94194.16
2022-12-11T13:18:54.621Z,94185.19
2022-12-11T13:21:29.671Z,94184.22
2022-12-11T13:24:16.968Z,94180.16
2022-12-11T13:26:43.821Z,94175.03
2022-12-11T13:29:30.172Z,94176.88
2022-12-11T13:32:00.379Z,94179.94
2022-12-11T13:34:33.098Z,94178.66
2022-12-11T13:37:02.361Z,94187.31
2022-12-11T13:39:39.427Z,94180.19
2022-12-11T13:42:20.740Z,94179.75
2022-12-11T13:44:49.273Z,94180.94
2022-12-11T13:47:19.485Z,94173.56
2022-12-11T13:49:53.158Z,94179.44
2022-12-11T13:52:22.738Z,94174.75
2022-12-11T13:54:52.491Z,94179.03
2022-12-11T13:57:22.434Z,94182.00
2022-12-11T13:59:52.258Z,94177.72
2022-12-11T14:02:34.188Z,94181.91
2022-12-11T14:05:07.420Z,94188.97
2022-12-11T14:07:40.707Z,94185.38
2022-12-11T14:10:24.458Z,94186.81
2022-12-11T14:13:02.428Z,94181.28
2022-12-11T14:15:32.234Z,94190.59
2022-12-11T14:18:00.673Z,94185.84
2022-12-11T14:20:31.782Z,94182.53
2022-12-11T14:23:08.214Z,94187.28
2022-12-11T14:25:34.987Z,94180.34
2022-12-11T14:28:01.659Z,94188.25
2022-12-11T14:30:32.780Z,94191.47
2022-12-11T14:33:04.582Z,94190.28
2022-12-11T14:35:38.627Z,94189.75
2022-12-11T14:38:27.035Z,94192.34
2022-12-11T14:41:05.328Z,94186.59
2022-12-11T14:43:46.831Z,94183.78
2022-12-11T14:46:25.238Z,94181.56
2022-12-11T14:49:01.839Z,94181.03
2022-12-11T14:51:38.713Z,94189.78
2022-12-11T14:54:11.199Z,94194.47
2022-12-11T14:56:56.775Z,94187.94
2022-12-11T14:59:31.811Z,94200.22
2022-12-11T15:02:21.260Z,94197.00
2022-12-11T15:05:00.028Z,94202.47
2022-12-11T15:07:26.656Z,94192.84
2022-12-11T15:09:56.402Z,94188.41
2022-12-11T15:12:23.947Z,94191.41
2022-12-11T15:15:06.684Z,94200.22
2022-12-11T15:17:35.747Z,94203.03
2022-12-11T15:20:09.998Z,94202.75
2022-12-11T15:22:38.020Z,94195.38
2022-12-11T15:25:05.316Z,94197.69
2022-12-11T15:27:36.901Z,94199.34
2022-12-11T15:30:16.115Z,94208.47
2022-12-11T15:32:42.898Z,94206.59
2022-12-11T15:35:27.810Z,94207.53
2022-12-11T15:37:56.451Z,94205.22
2022-12-11T15:40:24.173Z,94197.84
2022-12-11T15:42:52.159Z,94201.16
2022-12-11T15:45:22.701Z,94201.94
2022-12-11T15:47:50.742Z,94212.53
2022-12-11T15:50:26.572Z,94215.00
2022-12-11T15:52:56.010Z,94215.25
2022-12-11T15:55:26.403Z,94216.34
2022-12-11T15:57:55.985Z,94216.25
2022-12-11T16:00:23.697Z,94220.78
2022-12-11T16:02:50.790Z,94223.25
2022-12-11T16:05:17.840Z,94223.28
2022-12-11T16:07:45.392Z,94220.63
2022-12-11T16:10:19.465Z,94220.59
2022-12-11T16:12:46.278Z,94226.03
2022-12-11T16:15:21.489Z,94229.72
2022-12-11T16:17:50.060Z,94224.56
2022-12-11T16:20:16.871Z,94226.69
2022-12-11T16:22:43.617Z,94233.94
2022-12-11T16:25:13.748Z,94231.81
2022-12-11T16:27:40.971Z,94235.09
2022-12-11T16:30:08.852Z,94233.97
2022-12-11T16:32:38.647Z,94232.34
2022-12-11T16:35:05.714Z,94240.44
2022-12-11T16:37:39.528Z,94237.84
2022-12-11T16:40:12.086Z,94225.88
2022-12-11T16:42:38.869Z,94228.78
2022-12-11T16:45:17.783Z,94232.34
2022-12-11T16:47:44.722Z,94223.13
2022-12-11T16:50:13.747Z,94221.38
2022-12-11T16:52:40.541Z,94223.31
2022-12-11T16:55:08.903Z,94221.22
2022-12-11T16:57:36.232Z,94230.56
2022-12-11T17:00:05.431Z,94231.69
2022-12-11T17:02:32.661Z,94229.78
2022-12-11T17:04:59.343Z,94231.38
2022-12-11T17:07:26.309Z,94232.69
2022-12-11T17:09:53.088Z,94239.75
2022-12-11T17:12:19.939Z,94232.63
2022-12-11T17:14:46.738Z,94235.88
2022-12-11T17:17:13.356Z,94237.81
2022-12-11T17:19:40.024Z,94240.56
2022-12-11T17:22:06.922Z,94248.47
2022-12-11T17:24:33.905Z,94242.34
2022-12-11T17:27:00.783Z,94242.03
2022-12-11T17:29:28.165Z,94246.88
2022-12-11T17:31:54.858Z,94243.81
2022-12-11T17:34:21.510Z,94251.56
2022-12-11T17:36:48.240Z,94247.53
2022-12-11T17:39:14.916Z,94242.34
2022-12-11T17:41:41.576Z,94245.44
2022-12-11T17:44:08.324Z,94238.19
2022-12-11T17:46:35.093Z,94238.81
2022-12-11T17:49:05.502Z,94239.16
2022-12-11T17:51:37.475Z,94233.31
2022-12-11T17:54:04.986Z,94236.38
2022-12-11T17:56:31.688Z,94231.69
2022-12-11T17:58:58.438Z,94234.63
2022-12-11T18:01:25.226Z,94239.59
2022-12-11T18:03:52.049Z,94227.34
2022-12-11T18:06:19.931Z,94229.38
2022-12-11T18:08:48.036Z,94233.81
2022-12-11T18:11:19.915Z,94230.19
2022-12-11T18:13:46.764Z,94235.84
2022-12-11T18:16:18.736Z,94234.53
2022-12-11T18:18:47.033Z,94231.84
2022-12-11T18:21:16.242Z,94235.09
2022-12-11T18:23:43.947Z,94234.28
2022-12-11T18:26:10.736Z,94232.78
2022-12-11T18:28:37.606Z,94236.78
2022-12-11T18:31:04.659Z,94239.94
2022-12-11T18:33:31.945Z,94243.81
2022-12-11T18:35:58.723Z,94248.50
2022-12-11T18:38:25.604Z,94243.31
2022-12-11T18:40:52.313Z,94249.16
2022-12-11T18:43:18.978Z,94246.06
2022-12-11T18:45:45.827Z,94245.59
2022-12-11T18:48:13.939Z,94247.81
2022-12-11T18:50:52.121Z,94250.41
2022-12-11T18:53:19.000Z,94258.81
2022-12-11T18:55:48.622Z,94253.66
2022-12-11T18:58:17.945Z,94250.59
2022-12-11T19:00:45.561Z,94258.81
2022-12-11T19:03:12.833Z,94258.16
2022-12-11T19:05:41.033Z,94253.16
2022-12-11T19:08:08.138Z,94256.22
2022-12-11T19:10:41.444Z,94256.22
2022-12-11T19:13:08.140Z,94254.16
2022-12-11T19:15:38.725Z,94259.47
2022-12-11T19:18:05.769Z,94255.25
2022-12-11T19:20:57.665Z,94257.03
2022-12-11T19:23:22.921Z,94262.06
2022-12-11T19:25:50.067Z,94254.31
2022-12-11T19:28:16.817Z,94258.34
2022-12-11T19:30:45.819Z,94263.94
2022-12-11T19:33:12.597Z,94263.50
2022-12-11T19:35:39.793Z,94260.09
2022-12-11T19:38:08.535Z,94255.25
2022-12-11T19:40:43.303Z,94260.09
2022-12-11T19:43:10.569Z,94252.34
2022-12-11T19:45:37.716Z,94257.22
2022-12-11T19:48:04.648Z,94247.50
2022-12-11T19:50:31.318Z,94252.66
2022-12-11T19:52:58.000Z,94251.56
2022-12-11T19:55:24.698Z,94257.84
2022-12-11T19:57:51.502Z,94256.84
2022-12-11T20:00:18.721Z,94251.88
2022-12-11T20:02:45.374Z,94261.41
2022-12-11T20:05:12.519Z,94262.38
2022-12-11T20:07:39.496Z,94265.31
2022-12-11T20:10:06.726Z,94267.56
2022-12-11T20:12:33.584Z,94261.91
2022-12-11T20:15:00.403Z,94259.97
2022-12-11T20:17:27.151Z,94271.28
2022-12-11T20:19:54.036Z,94260.56
2022-12-11T20:22:20.737Z,94264.31
2022-12-11T20:24:47.571Z,94269.19
2022-12-11T20:27:14.249Z,94271.34
2022-12-11T20:29:40.881Z,94262.78
2022-12-11T20:32:07.876Z,94263.16
2022-12-11T20:34:34.735Z,94256.69
2022-12-11T20:37:01.559Z,94259.38
2022-12-11T20:39:28.379Z,94259.38
2022-12-11T20:41:55.154Z,94256.16
2022-12-11T20:44:21.795Z,94257.41
2022-12-11T20:46:49.689Z,94251.31
2022-12-11T20:49:19.366Z,94251.47
2022-12-11T20:51:46.260Z,94250.25
2022-12-11T20:54:12.987Z,94247.78
2022-12-11T20:56:39.725Z,94250.19
2022-12-11T20:59:06.445Z,94245.19
2022-12-11T21:01:33.269Z,94253.00
2022-12-11T21:04:00.850Z,94244.38
2022-12-11T21:06:33.973Z,94247.03
2022-12-11T21:09:06.683Z,94248.06
2022-12-11T21:11:33.787Z,94243.00
2022-12-11T21:14:00.486Z,94246.94
2022-12-11T21:16:27.320Z,94241.28
2022-12-11T21:18:55.644Z,94246.34
2022-12-11T21:21:22.493Z,94243.38
2022-12-11T21:23:49.190Z,94248.59
2022-12-11T21:26:16.175Z,94251.28
2022-12-11T21:28:43.044Z,94252.00
2022-12-11T21:31:14.731Z,94238.81
2022-12-11T21:33:41.456Z,94249.53
2022-12-11T21:36:10.175Z,94243.25
2022-12-11T21:38:37.608Z,94248.22
2022-12-11T21:41:23.559Z,94241.09
2022-12-11T21:44:56.483Z,94238.13
2022-12-11T21:46:40.531Z,94248.16
2022-12-11T21:49:07.524Z,94240.97
2022-12-11T21:51:42.552Z,94248.03
2022-12-11T21:54:14.990Z,94251.50
2022-12-11T21:56:41.803Z,94252.09
2022-12-11T21:59:08.494Z,94253.38
2022-12-11T22:01:39.007Z,94250.59
2022-12-11T22:04:05.695Z,94257.50
2022-12-11T22:06:33.383Z,94251.03
2022-12-11T22:09:00.568Z,94256.72
2022-12-11T22:11:30.940Z,94255.38
2022-12-11T22:13:58.256Z,94254.69
2022-12-11T22:16:25.016Z,94257.09
2022-12-11T22:18:51.910Z,94254.75
2022-12-11T22:21:19.611Z,94262.13
2022-12-11T22:23:46.885Z,94259.31
2022-12-11T22:26:19.858Z,94256.84
2022-12-11T22:28:46.727Z,94263.09
2022-12-11T22:31:15.006Z,94257.22
2022-12-11T22:33:41.816Z,94257.41
2022-12-11T22:36:10.714Z,94258.94
2022-12-11T22:38:37.993Z,94256.00
2022-12-11T22:41:22.295Z,94257.34
2022-12-11T22:43:49.706Z,94263.44
2022-12-11T22:46:19.659Z,94269.50
2022-12-11T22:48:46.542Z,94260.56
2022-12-11T22:51:13.708Z,94257.75
2022-12-11T22:53:40.374Z,94265.91
2022-12-11T22:56:09.461Z,94258.09
2022-12-11T22:58:36.797Z,94260.81
2022-12-11T23:01:09.453Z,94256.84
2022-12-11T23:03:36.778Z,94260.03
2022-12-11T23:06:08.351Z,94265.25
2022-12-11T23:08:35.956Z,94266.59
2022-12-11T23:11:11.039Z,94263.38
2022-12-11T23:13:37.792Z,94260.75
2022-12-11T23:16:07.127Z,94265.47
2022-12-11T23:18:33.868Z,94265.34
2022-12-11T23:21:00.816Z,94259.75
2022-12-11T23:23:27.412Z,94258.63
2022-12-11T23:25:54.272Z,94265.00
2022-12-11T23:28:20.976Z,94266.22
2022-12-11T23:30:47.760Z,94272.19
2022-12-11T23:33:14.652Z,94272.50
2022-12-11T23:35:41.329Z,94269.84
2022-12-11T23:38:08.036Z,94275.03
2022-12-11T23:40:37.727Z,94276.03
2022-12-11T23:43:04.336Z,94278.50
2022-12-11T23:45:31.056Z,94275.78
2022-12-11T23:47:57.678Z,94271.50
2022-12-11T23:50:24.328Z,94277.22
2022-12-11T23:52:50.947Z,94270.88
2022-12-11T23:55:17.684Z,94268.72
2022-12-11T23:57:44.278Z,94271.84
